Time,TemperatureF,DewpointF,PressureIn,WindDirection,WindDirectionDegrees,WindSpeedMPH,WindSpeedGustMPH,Humidity,HourlyPrecipIn,Conditions,Clouds,dailyrainin,SoftwareType,DateUTC
2013-07-17 01:00:00,69.0,-99.9,-100.00,North,-999,-999.0,-999.0,-999,0.00,,,1.10,,2013-07-17 06:00:00,
2013-07-17 01:43:00,69.0,-99.9,-100.00,North,-999,-999.0,-999.0,-999,0.00,,,1.10,,2013-07-17 06:43:00,
2013-07-17 01:52:00,69.0,-99.9,-100.00,North,-999,-999.0,-999.0,-999,0.00,,,1.10,,2013-07-17 06:52:00,
2013-07-17 02:00:00,69.0,-99.9,-100.00,North,-999,-999.0,-999.0,-999,0.00,,,1.10,,2013-07-17 07:00:00,
2013-07-17 02:42:00,69.0,-99.9,-100.00,North,-999,-999.0,-999.0,-999,0.00,,,1.10,,2013-07-17 07:42:00,
2013-07-17 02:52:00,69.0,-99.9,-100.00,North,-999,-999.0,-999.0,-999,0.00,,,1.10,,2013-07-17 07:52:00,
2013-07-17 03:00:00,69.0,-99.9,-100.00,North,-999,-999.0,-999.0,-999,0.00,,,1.10,,2013-07-17 08:00:00,
2013-07-17 03:32:00,69.0,-99.9,-100.00,North,-999,-999.0,-999.0,-999,0.00,,,1.10,,2013-07-17 08:32:00,
2013-07-17 03:43:00,69.0,-99.9,-100.00,North,-999,-999.0,-999.0,-999,0.00,,,1.10,,2013-07-17 08:43:00,
2013-07-17 03:53:00,69.0,-99.9,-100.00,North,-999,-999.0,-999.0,-999,0.00,,,1.10,,2013-07-17 08:53:00,
2013-07-17 04:00:00,69.0,-99.9,-100.00,North,-999,-999.0,-999.0,-999,0.00,,,0.94,,2013-07-17 09:00:00,
2013-07-17 04:43:00,69.0,-99.9,-100.00,North,-999,-999.0,-999.0,-999,0.00,,,0.94,,2013-07-17 09:43:00,
2013-07-17 04:52:00,69.0,-99.9,-100.00,North,-999,-999.0,-999.0,-999,0.00,,,0.94,,2013-07-17 09:52:00,
2013-07-17 05:00:00,68.0,-99.9,-100.00,North,-999,-999.0,-999.0,-999,0.00,,,0.78,,2013-07-17 10:00:00,
2013-07-17 05:43:00,68.0,-99.9,-100.00,North,-999,-999.0,-999.0,-999,0.00,,,0.78,,2013-07-17 10:43:00,
2013-07-17 05:52:00,68.0,-99.9,-100.00,North,-999,-999.0,-999.0,-999,0.00,,,0.78,,2013-07-17 10:52:00,
2013-07-17 06:00:00,68.0,-99.9,-100.00,North,-999,-999.0,-999.0,-999,0.00,,,0.59,,2013-07-17 11:00:00,
2013-07-17 06:43:00,68.0,-99.9,-100.00,North,-999,-999.0,-999.0,-999,0.00,,,0.59,,2013-07-17 11:43:00,
2013-07-17 06:52:00,68.0,-99.9,-100.00,North,-999,-999.0,-999.0,-999,0.00,,,0.59,,2013-07-17 11:52:00,
2013-07-17 07:00:00,68.0,-99.9,-100.00,North,-999,-999.0,-999.0,-999,0.01,,,0.59,,2013-07-17 12:00:00,
2013-07-17 07:43:00,68.0,-99.9,-100.00,North,-999,-999.0,-999.0,-999,0.01,,,0.59,,2013-07-17 12:43:00,
2013-07-17 07:53:00,68.0,-99.9,-100.00,North,-999,-999.0,-999.0,-999,0.01,,,0.59,,2013-07-17 12:53:00,
2013-07-17 08:00:00,69.0,-99.9,-100.00,North,-999,-999.0,-999.0,-999,0.03,,,0.62,,2013-07-17 13:00:00,
2013-07-17 08:43:00,69.0,-99.9,-100.00,North,-999,-999.0,-999.0,-999,0.03,,,0.62,,2013-07-17 13:43:00,
2013-07-17 08:53:00,69.0,-99.9,-100.00,North,-999,-999.0,-999.0,-999,0.03,,,0.62,,2013-07-17 13:53:00,
2013-07-17 09:00:00,70.0,-99.9,-100.00,North,-999,-999.0,-999.0,-999,0.01,,,0.63,,2013-07-17 14:00:00,
2013-07-17 09:32:00,70.0,-99.9,-100.00,North,-999,-999.0,-999.0,-999,0.01,,,0.63,,2013-07-17 14:32:00,
2013-07-17 09:43:00,70.0,-99.9,-100.00,North,-999,-999.0,-999.0,-999,0.01,,,0.63,,2013-07-17 14:43:00,
2013-07-17 09:52:00,70.0,-99.9,-100.00,North,-999,-999.0,-999.0,-999,0.01,,,0.63,,2013-07-17 14:52:00,
2013-07-17 12:00:00,75.0,-99.9,-100.00,North,-999,-999.0,-999.0,-999,0.00,,,0.55,,2013-07-17 17:00:00,
2013-07-17 12:43:00,75.0,-99.9,-100.00,North,-999,-999.0,-999.0,-999,0.00,,,0.55,,2013-07-17 17:43:00,
2013-07-17 12:52:00,75.0,-99.9,-100.00,North,-999,-999.0,-999.0,-999,0.00,,,0.55,,2013-07-17 17:52:00,
2013-07-17 13:00:00,78.0,-99.9,-100.00,North,-999,-999.0,-999.0,-999,0.00,,,0.54,,2013-07-17 18:00:00,
2013-07-17 13:43:00,78.0,-99.9,-100.00,North,-999,-999.0,-999.0,-999,0.00,,,0.54,,2013-07-17 18:43:00,
2013-07-17 13:52:00,78.0,-99.9,-100.00,North,-999,-999.0,-999.0,-999,0.00,,,0.54,,2013-07-17 18:52:00,
2013-07-17 14:00:00,79.0,-99.9,-100.00,North,-999,-999.0,-999.0,-999,0.00,,,0.54,,2013-07-17 19:00:00,
2013-07-17 14:43:00,79.0,-99.9,-100.00,North,-999,-999.0,-999.0,-999,0.00,,,0.54,,2013-07-17 19:43:00,
2013-07-17 14:53:00,79.0,-99.9,-100.00,North,-999,-999.0,-999.0,-999,0.00,,,0.54,,2013-07-17 19:53:00,
2013-07-17 15:00:00,77.0,-99.9,-100.00,North,-999,-999.0,-999.0,-999,0.00,,,0.30,,2013-07-17 20:00:00,
2013-07-17 15:43:00,77.0,-99.9,-100.00,North,-999,-999.0,-999.0,-999,0.00,,,0.30,,2013-07-17 20:43:00,
2013-07-17 15:53:00,77.0,-99.9,-100.00,North,-999,-999.0,-999.0,-999,0.00,,,0.30,,2013-07-17 20:53:00,
2013-07-17 16:00:00,81.0,-99.9,-100.00,North,-999,-999.0,-999.0,-999,0.00,,,0.15,,2013-07-17 21:00:00,
2013-07-17 16:42:00,81.0,-99.9,-100.00,North,-999,-999.0,-999.0,-999,0.00,,,0.15,,2013-07-17 21:42:00,
2013-07-17 16:53:00,81.0,-99.9,-100.00,North,-999,-999.0,-999.0,-999,0.00,,,0.15,,2013-07-17 21:53:00,
2013-07-17 17:00:00,83.0,-99.9,-100.00,North,-999,-999.0,-999.0,-999,0.00,,,0.05,,2013-07-17 22:00:00,
2013-07-17 17:43:00,83.0,-99.9,-100.00,North,-999,-999.0,-999.0,-999,0.00,,,0.05,,2013-07-17 22:43:00,
2013-07-17 17:54:00,83.0,-99.9,-100.00,North,-999,-999.0,-999.0,-999,0.00,,,0.05,,2013-07-17 22:54:00,
2013-07-17 18:00:00,73.0,-99.9,-100.00,North,-999,-999.0,-999.0,-999,0.04,,,0.09,,2013-07-17 23:00:00,
2013-07-17 18:43:00,73.0,-99.9,-100.00,North,-999,-999.0,-999.0,-999,0.04,,,0.09,,2013-07-17 23:43:00,
2013-07-17 18:52:00,73.0,-99.9,-100.00,North,-999,-999.0,-999.0,-999,0.04,,,0.09,,2013-07-17 23:52:00,
2013-07-17 19:00:00,73.0,-99.9,-100.00,North,-999,-999.0,-999.0,-999,0.01,,,0.10,,2013-07-18 00:00:00,
2013-07-17 19:43:00,73.0,-99.9,-100.00,North,-999,-999.0,-999.0,-999,0.01,,,0.10,,2013-07-18 00:43:00,
2013-07-17 19:52:00,73.0,-99.9,-100.00,North,-999,-999.0,-999.0,-999,0.01,,,0.10,,2013-07-18 00:52:00,
2013-07-17 20:00:00,74.0,-99.9,-100.00,North,-999,-999.0,-999.0,-999,0.00,,,0.10,,2013-07-18 01:00:00,
2013-07-17 20:32:00,74.0,-99.9,-100.00,North,-999,-999.0,-999.0,-999,0.00,,,0.10,,2013-07-18 01:32:00,
2013-07-17 20:43:00,74.0,-99.9,-100.00,North,-999,-999.0,-999.0,-999,0.00,,,0.10,,2013-07-18 01:43:00,
2013-07-17 20:53:00,74.0,-99.9,-100.00,North,-999,-999.0,-999.0,-999,0.00,,,0.10,,2013-07-18 01:53:00,
2013-07-17 21:00:00,74.0,-99.9,-100.00,North,-999,-999.0,-999.0,-999,0.00,,,0.10,,2013-07-18 02:00:00,
2013-07-17 21:43:00,74.0,-99.9,-100.00,North,-999,-999.0,-999.0,-999,0.00,,,0.10,,2013-07-18 02:43:00,
2013-07-17 21:52:00,74.0,-99.9,-100.00,North,-999,-999.0,-999.0,-999,0.00,,,0.10,,2013-07-18 02:52:00,
2013-07-17 22:00:00,73.0,-99.9,-100.00,North,-999,-999.0,-999.0,-999,0.00,,,0.10,,2013-07-18 03:00:00,
2013-07-17 22:43:00,73.0,-99.9,-100.00,North,-999,-999.0,-999.0,-999,0.00,,,0.10,,2013-07-18 03:43:00,
2013-07-17 22:52:00,73.0,-99.9,-100.00,North,-999,-999.0,-999.0,-999,0.00,,,0.10,,2013-07-18 03:52:00,
2013-07-17 23:00:00,72.0,-99.9,-100.00,North,-999,-999.0,-999.0,-999,0.00,,,0.10,,2013-07-18 04:00:00,
2013-07-17 23:43:00,72.0,-99.9,-100.00,North,-999,-999.0,-999.0,-999,0.00,,,0.10,,2013-07-18 04:43:00,
2013-07-17 23:52:00,72.0,-99.9,-100.00,North,-999,-999.0,-999.0,-999,0.00,,,0.10,,2013-07-18 04:52:00,